createdAt,value
2023-05-05T00:05:51.380Z,17.1
2023-05-05T00:11:51.374Z,17
2023-05-05T00:17:51.450Z,17
2023-05-05T00:23:51.403Z,16.9
2023-05-05T00:29:51.374Z,16.8
2023-05-05T00:35:51.432Z,16.8
2023-05-05T00:41:51.390Z,16.7
2023-05-05T00:47:51.546Z,16.8
2023-05-05T00:53:51.427Z,16.7
2023-05-05T00:59:51.461Z,16.5
2023-05-05T01:05:51.441Z,16.4
2023-05-05T01:11:51.386Z,16.5
2023-05-05T01:17:51.425Z,16.6
2023-05-05T01:23:51.410Z,16.5
2023-05-05T01:29:51.441Z,16.3
2023-05-05T01:35:51.398Z,16.5
2023-05-05T01:41:51.384Z,16.5
2023-05-05T01:47:51.474Z,16.4
2023-05-05T01:53:51.394Z,16.5
2023-05-05T01:59:51.382Z,16.3
2023-05-05T02:05:51.396Z,16.2
2023-05-05T02:11:51.399Z,15.9
2023-05-05T02:17:51.477Z,15.8
2023-05-05T02:23:51.404Z,16.2
2023-05-05T02:29:51.408Z,16.4
2023-05-05T02:41:51.439Z,16.3
2023-05-05T02:47:51.440Z,16.2
2023-05-05T02:53:51.404Z,16.3
2023-05-05T02:59:51.420Z,16.4
2023-05-05T03:05:51.418Z,16.6
2023-05-05T03:11:51.419Z,16.6
2023-05-05T03:17:51.445Z,16.5
2023-05-05T03:23:51.417Z,16.3
2023-05-05T03:29:51.415Z,16.2
2023-05-05T03:35:51.400Z,15.9
2023-05-05T03:41:51.414Z,15.9
2023-05-05T03:47:51.426Z,15.9
2023-05-05T03:53:51.420Z,16
2023-05-05T03:59:51.437Z,16
2023-05-05T04:11:51.454Z,16.1
2023-05-05T04:17:51.503Z,15.9
2023-05-05T04:23:51.413Z,16
2023-05-05T04:29:51.607Z,16
2023-05-05T04:35:51.405Z,15.9
2023-05-05T04:41:51.446Z,16.2
2023-05-05T04:47:51.528Z,16.2
2023-05-05T04:53:51.418Z,16.4
2023-05-05T04:59:51.434Z,16.7
2023-05-05T05:05:51.452Z,16.8
2023-05-05T05:11:51.424Z,17.2
2023-05-05T05:17:51.636Z,17.3
2023-05-05T05:23:51.427Z,17.6
2023-05-05T05:29:51.468Z,17.9
2023-05-05T05:35:51.426Z,17.8
2023-05-05T05:41:51.615Z,17.6
2023-05-05T05:47:51.448Z,18
2023-05-05T05:53:51.472Z,18.1
2023-05-05T05:59:51.438Z,18.2
2023-05-05T06:05:51.443Z,18.7
2023-05-05T06:11:51.437Z,18.8
2023-05-05T06:17:51.480Z,19.1
2023-05-05T06:23:51.432Z,19.4
2023-05-05T06:29:51.459Z,19.5
2023-05-05T06:35:51.510Z,19.5
2023-05-05T06:41:51.447Z,19.8
2023-05-05T06:47:51.441Z,20.5
2023-05-05T06:53:51.447Z,20.7
2023-05-05T06:59:51.454Z,21.9
2023-05-05T07:05:51.458Z,22.3
2023-05-05T07:11:51.447Z,23.8
2023-05-05T07:17:51.445Z,24.8
2023-05-05T07:23:51.473Z,24.9
2023-05-05T07:29:51.467Z,25.4
2023-05-05T07:35:51.465Z,26.5
2023-05-05T07:41:51.460Z,26
2023-05-05T07:47:51.493Z,26.2
2023-05-05T07:53:51.461Z,25.5
2023-05-05T07:59:51.464Z,27.1
2023-05-05T08:05:51.830Z,26
2023-05-05T08:11:51.486Z,25.5
2023-05-05T08:17:51.609Z,26.8
2023-05-05T08:23:51.479Z,27.3
2023-05-05T08:29:51.506Z,27.5
2023-05-05T08:35:51.493Z,27.9
2023-05-05T08:41:51.502Z,27.7
2023-05-05T08:47:51.557Z,28.3
2023-05-05T08:53:51.499Z,29.7
2023-05-05T08:59:51.547Z,30.3
2023-05-05T09:11:51.506Z,30.8
2023-05-05T09:17:51.566Z,30.2
2023-05-05T09:23:51.499Z,30.8
2023-05-05T09:29:51.504Z,31.4
2023-05-05T09:41:51.515Z,32.4
2023-05-05T09:53:51.548Z,33.3
2023-05-05T09:59:51.551Z,33.8
2023-05-05T10:05:51.518Z,34.8
2023-05-05T10:11:51.534Z,34.5
2023-05-05T10:18:05.808Z,34.3
2023-05-05T10:23:51.524Z,29.6
2023-05-05T10:29:51.528Z,26.5
2023-05-05T10:35:51.551Z,25.1
2023-05-05T10:41:51.567Z,24.4
2023-05-05T10:47:51.583Z,24.3
2023-05-05T10:53:51.566Z,24.1
2023-05-05T10:59:51.544Z,24
2023-05-05T11:05:51.559Z,23.7
2023-05-05T11:11:51.550Z,24.4
2023-05-05T11:17:51.565Z,23.2
2023-05-05T11:23:51.571Z,23.1
2023-05-05T11:29:52.108Z,22
2023-05-05T11:41:51.626Z,19.9
2023-05-05T11:47:51.716Z,20.5
2023-05-05T11:53:51.554Z,20.8
2023-05-05T11:59:51.577Z,19.8
2023-05-05T12:05:51.576Z,18.7
2023-05-05T12:11:51.578Z,18.6
2023-05-05T12:17:51.702Z,17.6
2023-05-05T12:23:51.574Z,17.7
2023-05-05T12:29:51.555Z,17.7
2023-05-05T12:35:51.581Z,18.9
2023-05-05T12:41:51.576Z,18.9
2023-05-05T12:47:51.617Z,20.2
2023-05-05T12:53:51.579Z,19.2
2023-05-05T12:59:51.587Z,19.6
2023-05-05T13:05:51.572Z,20
2023-05-05T13:11:51.577Z,20.6
2023-05-05T13:17:51.688Z,20.4
2023-05-05T13:23:51.644Z,21.2
2023-05-05T13:29:51.670Z,21.4
2023-05-05T13:35:51.592Z,20.9
2023-05-05T13:41:51.606Z,20.3
2023-05-05T13:47:51.581Z,20.4
2023-05-05T13:53:51.594Z,20.4
2023-05-05T13:59:51.573Z,20
2023-05-05T14:05:51.578Z,20.3
2023-05-05T14:11:51.605Z,20.4
2023-05-05T14:17:59.325Z,21
2023-05-05T14:23:51.590Z,20.7
2023-05-05T14:29:51.577Z,20.7
2023-05-05T14:35:51.606Z,20.8
2023-05-05T14:41:51.604Z,20.7
2023-05-05T14:47:51.593Z,21
2023-05-05T14:53:51.606Z,20.8
2023-05-05T14:59:51.575Z,20.7
2023-05-05T15:11:51.583Z,21.7
2023-05-05T15:17:51.611Z,21.4
2023-05-05T15:23:51.626Z,21.1
2023-05-05T15:29:51.578Z,21.3
2023-05-05T15:35:51.657Z,21.3
2023-05-05T15:41:51.660Z,20.7
2023-05-05T15:47:51.660Z,19.9
2023-05-05T15:59:51.613Z,20
2023-05-05T16:05:51.583Z,19.9
2023-05-05T16:11:51.618Z,17.1
2023-05-05T16:17:51.645Z,15.4
2023-05-05T16:23:51.629Z,15
2023-05-05T16:29:51.631Z,14.9
2023-05-05T16:35:51.622Z,14.9
2023-05-05T16:41:51.616Z,15.1
2023-05-05T16:47:51.646Z,15.1
2023-05-05T16:53:51.601Z,15.1
2023-05-05T16:59:51.631Z,15.2
2023-05-05T17:05:51.634Z,15.1
2023-05-05T17:11:51.621Z,15
2023-05-05T17:17:51.613Z,15.2
2023-05-05T17:23:51.601Z,15.4
2023-05-05T17:29:51.623Z,15.7
2023-05-05T17:35:51.607Z,15.3
2023-05-05T17:41:51.708Z,15.2
2023-05-05T17:47:51.643Z,15.5
2023-05-05T17:53:51.625Z,15.8
2023-05-05T17:59:51.642Z,16
2023-05-05T18:05:51.640Z,15.9
2023-05-05T18:11:51.634Z,15.8
2023-05-05T18:17:51.626Z,15.6
2023-05-05T18:23:51.628Z,15.4
2023-05-05T18:29:51.622Z,15.5
2023-05-05T18:35:51.611Z,15.2
2023-05-05T18:41:51.627Z,15.3
2023-05-05T18:47:51.742Z,15.6
2023-05-05T18:53:51.632Z,15.8
2023-05-05T18:59:51.638Z,15.7
2023-05-05T19:05:51.629Z,15
2023-05-05T19:11:51.637Z,14.9
2023-05-05T19:17:51.686Z,15
2023-05-05T19:23:51.641Z,15.1
2023-05-05T19:29:51.670Z,14.8
2023-05-05T19:35:51.628Z,14.7
2023-05-05T19:41:51.634Z,14.8
2023-05-05T19:47:51.678Z,14.6
2023-05-05T19:53:51.634Z,14.8
2023-05-05T19:59:51.619Z,15
2023-05-05T20:05:51.632Z,15.2
2023-05-05T20:11:51.621Z,14.9
2023-05-05T20:17:51.672Z,14.8
2023-05-05T20:23:51.635Z,14.4
2023-05-05T20:29:51.636Z,14.2
2023-05-05T20:35:51.643Z,14
2023-05-05T20:41:51.654Z,13.9
2023-05-05T20:47:51.663Z,13.7
2023-05-05T20:53:51.662Z,13.7
2023-05-05T20:59:51.681Z,13.7
2023-05-05T21:05:51.637Z,13.8
2023-05-05T21:11:51.658Z,13.7
2023-05-05T21:17:51.692Z,13.5
2023-05-05T21:23:51.645Z,13.6
2023-05-05T21:29:51.646Z,13.5
2023-05-05T21:35:51.630Z,13.6
2023-05-05T21:41:51.646Z,13.7
2023-05-05T21:47:51.701Z,13.7
2023-05-05T21:53:51.679Z,13.5
2023-05-05T21:59:51.646Z,13.5
2023-05-05T22:05:51.678Z,13.6
2023-05-05T22:11:51.660Z,13.6
2023-05-05T22:17:51.729Z,13.8
2023-05-05T22:23:51.672Z,13.7
2023-05-05T22:29:51.647Z,13.8
2023-05-05T22:35:51.633Z,13.6
2023-05-05T22:41:51.638Z,13.7
2023-05-05T22:47:51.737Z,13.8
2023-05-05T22:53:51.623Z,13.4
2023-05-05T22:59:51.656Z,13.5
2023-05-05T23:05:51.659Z,13.4
2023-05-05T23:11:51.664Z,13.4
2023-05-05T23:17:51.748Z,13.3
2023-05-05T23:24:01.925Z,13.4
2023-05-05T23:29:51.685Z,13.6
2023-05-05T23:35:51.670Z,13.5
2023-05-05T23:41:51.711Z,13.4
2023-05-05T23:47:51.707Z,13.2
2023-05-05T23:53:51.665Z,13
2023-05-05T23:59:51.652Z,13.1
